Cincinnati Northern Kentucky International Airport
KCVG : now visible

Airfield :











YOU CAN JOIN US ON...

 
LOGIN :

Register | Disclaimer

   EN    FR    IT 

 









Legend :    VFR   Marginal VFR   IFR   Intensive IFR   Very Intensive IFR
Visi :
Ceiling :
>= 8 km
>= 3000ft
5 to 8 km
1000 to 3000 ft
1500m to 5 km
500 to 1000 ft
800 to 1500m
200 to 500 ft
< 800m
< 200 ft
Symbols :   Thunderstorms  Fog  Heavy snow  Heavy precipitations  Wind > 20 kt






- Airport Elevation : 896 ft
- IATA code : CVG


KCVG - Cincinnati Northern Kentucky International

CURRENT METAR :
  • 161252Z 05011KT 1/2SM R18C/P6000FT BR OVC004 01/M01 A3005 RMK AO2 SFC VIS 1 1/2 SLP181 T00061006

EXPIRED METARs :
  • 161152Z 03010KT 1/2SM R18C/P6000FT BR OVC003 01/M01 A3004 RMK AO2 SFC VIS 2 SLP179 4/002 60002 70035 T00111006 10011 20006 53014
  • 161116Z 02009KT 1/2SM R18C/P6000FT BR OVC003 01/00 A3003 RMK AO2 SFC VIS 3 T00110000
  • 161052Z 04009KT 3/4SM R18C/P6000FT BR OVC004 01/00 A3002 RMK AO2 SFC VIS 4 SLP170 CIG 003V005 T00110000

TAF KCVG
Valid from the 16 at 12:00 until the 17 at 18:00 UTC


161139Z 1612/1718 05006KT 4SM BR OVC006
TEMPO 1612/1616 1/2SM FG OVC003
FM161900 05008KT P6SM VCSH OVC008
FM162100 04010KT 5SM -RA OVC008
TEMPO 1623/1703 03015G22KT 2SM -RA OVC015
FM170600 02010KT 3SM -FZRASN OVC004
FM170900 36012KT 3SM -SNRA OVC007
FM171400 34009KT P6SM OVC020
FM171700 32008KT P6SM BKN090



MET'MAP, your aeronautical weather chart ! - Copyright ORBIFLY December 2007 - Disclaimer

ORBIFLY MET'MAP TEAM :

Programming & Development : Alexandra Zaïnal
Concept & original design : Baudouin d'Aumeries
Assistance for programming : Marc-Olivier Méhu
Technical & hardware support : Manuel Goepfert

Contact : metmap@orbifly.com




SOURCES & CREDITS :

   NOAA       Earth
Advisory